Time;durP1;ratioP1;P1;durP2;ratioP2;P2;SDS_P1;SDS_P2;PMS_P1;PMS_P2;Temp;Humidity;BMP_temperature;BMP_pressure;BME280_temperature;BME280_humidity;BME280_pressure;Samples;Min_cycle;Max_cycle;Signal;HPM_P1;HPM_P2
2023/07/13 00:00:36;;;;;;;9.60;2.25;;;;;;;15.96;100.00;101178.91;4866939;29;20188;-78
2023/07/13 00:03:04;;;;;;;7.72;2.38;;;;;;;15.96;100.00;101184.22;4880838;29;20530;-79
2023/07/13 00:05:32;;;;;;;10.23;2.50;;;;;;;15.95;100.00;101182.47;4825705;29;20072;-78
2023/07/13 00:08:01;;;;;;;3.58;2.00;;;;;;;15.92;100.00;101182.50;4863986;29;20060;-78
2023/07/13 00:10:29;;;;;;;11.45;2.47;;;;;;;15.91;100.00;101188.72;4886842;29;20462;-78
2023/07/13 00:12:56;;;;;;;7.47;2.38;;;;;;;15.89;100.00;101176.34;4876617;29;20053;-77
2023/07/13 00:15:26;;;;;;;7.70;2.25;;;;;;;15.88;100.00;101185.22;4868974;29;20410;-78
2023/07/13 00:17:55;;;;;;;9.32;2.80;;;;;;;15.86;100.00;101179.94;4876509;29;20049;-78
2023/07/13 00:20:25;;;;;;;6.95;2.95;;;;;;;15.86;100.00;101181.69;4837525;29;20052;-78
2023/07/13 00:22:53;;;;;;;7.65;3.25;;;;;;;15.83;100.00;101179.97;4875409;29;20037;-78
2023/07/13 00:25:24;;;;;;;8.95;2.70;;;;;;;15.80;100.00;101185.31;4892580;29;20056;-78
2023/07/13 00:27:51;;;;;;;;;;;;;;;15.76;100.00;101189.81;4879920;29;20053;-78
2023/07/13 00:30:18;;;;;;;9.02;2.50;;;;;;;15.73;100.00;101186.28;4890004;29;19946;-78
2023/07/13 00:32:46;;;;;;;8.82;2.92;;;;;;;15.71;100.00;101193.41;4873735;29;20048;-77
2023/07/13 00:35:15;;;;;;;5.72;2.70;;;;;;;15.68;100.00;101196.06;4878670;29;20060;-78
2023/07/13 00:37:42;;;;;;;5.88;2.22;;;;;;;15.65;100.00;101196.09;4865407;29;20051;-77
2023/07/13 00:40:12;;;;;;;4.47;1.95;;;;;;;15.64;100.00;101194.38;4887242;29;20049;-78
2023/07/13 00:42:41;;;;;;;6.72;2.05;;;;;;;15.63;100.00;101198.78;4905396;29;20048;-78
2023/07/13 00:45:11;;;;;;;4.25;2.47;;;;;;;15.60;100.00;101199.69;4883217;29;20060;-78
2023/07/13 00:47:40;;;;;;;4.03;1.80;;;;;;;15.59;100.00;101195.31;4885337;29;20049;-78
2023/07/13 00:50:15;;;;;;;4.75;2.00;;;;;;;15.58;100.00;101192.66;4900542;29;20068;-78
2023/07/13 00:52:46;;;;;;;9.40;2.40;;;;;;;15.56;100.00;101199.78;4862162;29;20056;-78
2023/07/13 00:55:15;;;;;;;4.45;1.90;;;;;;;15.55;100.00;101193.56;4894647;29;20072;-78
2023/07/13 00:57:44;;;;;;;5.78;2.40;;;;;;;15.57;100.00;101194.41;4866516;29;20059;-78
2023/07/13 01:00:14;;;;;;;10.35;3.63;;;;;;;15.58;100.00;101198.84;4885758;29;20063;-77
2023/07/13 01:02:44;;;;;;;5.20;2.20;;;;;;;15.59;100.00;101202.38;4869733;29;20049;-78
2023/07/13 01:05:13;;;;;;;;;;;;;;;15.61;100.00;101203.22;4897696;29;20044;-78
2023/07/13 01:07:43;;;;;;;6.82;2.40;;;;;;;15.60;100.00;101201.47;4853734;29;19938;-79
2023/07/13 01:10:12;;;;;;;5.87;2.13;;;;;;;15.61;100.00;101205.88;4880047;29;20061;-78
2023/07/13 01:12:40;;;;;;;9.15;2.40;;;;;;;15.62;100.00;101205.00;4874626;29;20472;-79
2023/07/13 01:15:44;;;;;;;8.15;2.45;;;;;;;15.64;100.00;101202.34;4894231;29;20048;-80
2023/07/13 01:18:25;;;;;;;9.73;3.35;;;;;;;15.67;100.00;101200.53;4868266;29;20045;-78
2023/07/13 01:20:56;;;;;;;9.90;2.92;;;;;;;15.67;100.00;101211.16;4895198;29;20061;-77
2023/07/13 01:23:25;;;;;;;8.55;2.50;;;;;;;15.69;100.00;101211.09;4856557;29;20056;-77
2023/07/13 01:25:56;;;;;;;12.50;2.95;;;;;;;15.70;100.00;101207.56;4894481;29;20056;-78
2023/07/13 01:28:28;;;;;;;7.30;2.40;;;;;;;15.71;100.00;101209.34;4868753;29;20052;-78
2023/07/13 01:30:58;;;;;;;14.52;3.20;;;;;;;15.70;100.00;101208.44;4892907;29;20052;-79
2023/07/13 01:33:26;;;;;;;8.63;2.40;;;;;;;15.73;100.00;101210.19;4864491;29;20055;-78
2023/07/13 01:35:53;;;;;;;9.65;2.60;;;;;;;15.73;100.00;101205.78;4874872;29;20059;-78
2023/07/13 01:38:23;;;;;;;9.73;3.47;;;;;;;15.75;100.00;101206.63;4827835;29;20045;-77
2023/07/13 01:40:52;;;;;;;13.02;3.05;;;;;;;15.77;100.00;101211.94;4902346;29;20470;-77
2023/07/13 01:43:21;;;;;;;8.77;2.90;;;;;;;15.77;100.00;101207.50;4883492;29;20049;-78
2023/07/13 01:45:50;;;;;;;7.93;3.05;;;;;;;15.77;100.00;101215.47;4865916;29;20266;-78
2023/07/13 01:48:18;;;;;;;10.70;3.20;;;;;;;15.78;100.00;101217.25;4867982;29;20052;-79
2023/07/13 01:50:47;;;;;;;16.88;2.92;;;;;;;15.80;100.00;101219.84;4891984;29;20059;-78
2023/07/13 01:53:14;;;;;;;7.30;3.05;;;;;;;15.81;100.00;101216.31;4893950;29;20048;-78
2023/07/13 01:55:42;;;;;;;9.40;3.10;;;;;;;15.81;100.00;101208.34;4839766;29;20056;-77
2023/07/13 01:58:09;;;;;;;14.30;3.28;;;;;;;15.80;100.00;101211.88;4877927;29;20056;-78
2023/07/13 02:00:37;;;;;;;10.60;3.00;;;;;;;15.79;100.00;101212.81;4874794;29;20064;-78
2023/07/13 02:03:04;;;;;;;13.23;4.35;;;;;;;15.78;100.00;101205.72;4873039;29;20058;-79
2023/07/13 02:05:32;;;;;;;10.93;3.30;;;;;;;15.78;100.00;101208.38;4906371;29;20048;-77
2023/07/13 02:07:59;;;;;;;12.52;3.25;;;;;;;15.79;100.00;101212.81;4877315;29;20052;-77
2023/07/13 02:10:28;;;;;;;13.68;2.95;;;;;;;15.82;100.00;101222.50;4856085;29;20069;-78
2023/07/13 02:12:56;;;;;;;9.48;2.83;;;;;;;15.82;100.00;101223.38;4867305;29;20060;-77
2023/07/13 02:15:23;;;;;;;19.38;4.28;;;;;;;15.83;100.00;101221.63;4894868;29;20045;-78
2023/07/13 02:17:51;;;;;;;10.60;3.40;;;;;;;15.82;100.00;101222.50;4858721;29;20037;-78
2023/07/13 02:20:18;;;;;;;13.48;3.33;;;;;;;15.83;100.00;101217.16;4903437;29;20064;-78
2023/07/13 02:22:46;;;;;;;7.30;2.67;;;;;;;15.84;100.00;101224.25;4877384;29;20060;-78
2023/07/13 02:25:14;;;;;;;8.45;3.40;;;;;;;15.85;100.00;101223.34;4814875;29;20045;-78
2023/07/13 02:27:42;;;;;;;11.88;2.97;;;;;;;15.85;100.00;101219.81;4876319;29;20061;-77
2023/07/13 02:30:11;;;;;;;11.93;2.80;;;;;;;15.85;100.00;101223.34;4876626;29;20052;-78
2023/07/13 02:32:38;;;;;;;10.48;2.75;;;;;;;15.85;100.00;101215.38;4884527;29;20060;-78
2023/07/13 02:35:06;;;;;;;9.05;2.78;;;;;;;15.83;100.00;101219.81;4897862;29;20051;-77
2023/07/13 02:37:37;;;;;;;10.88;2.67;;;;;;;15.83;100.00;101218.97;4880450;29;20052;-78
2023/07/13 02:40:08;;;;;;;12.18;3.03;;;;;;;15.83;100.00;101218.97;4870049;29;20068;-79
2023/07/13 02:42:36;;;;;;;11.43;3.00;;;;;;;15.83;100.00;101213.66;4877012;29;20083;-78
2023/07/13 02:45:08;;;;;;;10.38;3.28;;;;;;;15.83;100.00;101211.84;4882571;29;20051;-78
2023/07/13 02:47:36;;;;;;;7.97;2.65;;;;;;;15.83;100.00;101208.31;4874680;29;20053;-78
2023/07/13 02:50:05;;;;;;;11.95;3.22;;;;;;;15.82;100.00;101215.41;4898972;29;20043;-78
2023/07/13 02:52:32;;;;;;;7.70;2.97;;;;;;;15.81;100.00;101218.09;4898754;29;20044;-76
2023/07/13 02:55:00;;;;;;;10.30;2.95;;;;;;;15.80;100.00;101214.53;4851309;29;22595;-79
2023/07/13 02:57:28;;;;;;;13.57;3.28;;;;;;;15.81;100.00;101210.13;4880527;29;20048;-80
2023/07/13 02:59:56;;;;;;;12.25;3.22;;;;;;;15.79;100.00;101220.78;4885240;29;20044;-78
2023/07/13 03:02:23;;;;;;;15.77;3.17;;;;;;;15.78;100.00;101219.00;4862952;29;20060;-78
2023/07/13 03:04:51;;;;;;;8.50;3.17;;;;;;;15.76;100.00;101220.78;4850672;29;20053;-78
2023/07/13 03:07:18;;;;;;;6.65;2.83;;;;;;;15.75;100.00;101219.06;4880716;29;20055;-78
2023/07/13 03:09:48;;;;;;;10.35;2.60;;;;;;;15.72;100.00;101216.38;4901207;29;20056;-78
2023/07/13 03:12:15;;;;;;;8.82;2.63;;;;;;;15.71;100.00;101218.19;4827056;29;20048;-77
2023/07/13 03:14:43;;;;;;;14.20;3.30;;;;;;;15.70;100.00;101220.84;4876097;29;20064;-78
2023/07/13 03:17:11;;;;;;;8.40;3.15;;;;;;;15.68;100.00;101212.03;4864676;29;20041;-78
2023/07/13 03:19:41;;;;;;;13.82;3.47;;;;;;;15.65;100.00;101215.59;4867978;29;20053;-78
2023/07/13 03:22:10;;;;;;;14.07;3.78;;;;;;;15.63;100.00;101213.84;4877706;29;20053;-78
2023/07/13 03:24:40;;;;;;;9.63;3.03;;;;;;;15.60;100.00;101218.28;4893918;29;20439;-78
2023/07/13 03:27:07;;;;;;;16.45;4.63;;;;;;;15.56;100.00;101224.53;4839222;29;20056;-77
2023/07/13 03:29:38;;;;;;;15.95;3.58;;;;;;;15.54;100.00;101228.13;4898696;29;20063;-78
2023/07/13 03:32:07;;;;;;;12.07;3.60;;;;;;;15.51;100.00;101218.41;4891977;29;20052;-78
2023/07/13 03:34:35;;;;;;;11.85;3.20;;;;;;;15.51;100.00;101222.84;4861472;29;20115;-77
2023/07/13 03:37:03;;;;;;;10.30;3.45;;;;;;;15.49;100.00;101216.66;4869404;29;20049;-78
2023/07/13 03:39:31;;;;;;;12.80;4.28;;;;;;;15.51;100.00;101230.81;4902012;29;20048;-78
2023/07/13 03:41:58;;;;;;;10.90;3.33;;;;;;;15.49;100.00;101235.25;4858887;29;20060;-78
2023/07/13 03:44:28;;;;;;;13.63;3.92;;;;;;;15.48;100.00;101226.41;4886536;29;20059;-78
2023/07/13 03:46:57;;;;;;;11.07;3.35;;;;;;;15.49;100.00;101235.25;4882517;29;20053;-78
2023/07/13 03:49:25;;;;;;;13.20;3.08;;;;;;;15.49;100.00;101238.78;4871891;29;20060;-78
2023/07/13 03:51:53;;;;;;;15.65;3.85;;;;;;;15.51;100.00;101239.66;4866644;29;20577;-77
2023/07/13 03:54:21;;;;;;;15.90;3.90;;;;;;;15.53;100.00;101237.84;4865660;29;20483;-77
2023/07/13 03:56:48;;;;;;;9.82;3.63;;;;;;;15.56;100.00;101244.94;4867122;29;20048;-77
2023/07/13 03:59:17;;;;;;;11.85;3.20;;;;;;;15.56;100.00;101242.28;4896845;29;20049;-77
2023/07/13 04:01:45;;;;;;;7.47;3.33;;;;;;;15.59;100.00;101239.56;4856083;29;20063;-78
2023/07/13 04:04:13;;;;;;;7.90;3.05;;;;;;;15.62;100.00;101249.28;4876745;29;20060;-78
2023/07/13 04:06:41;;;;;;;9.15;3.28;;;;;;;15.65;100.00;101247.47;4880302;29;20530;-78
2023/07/13 04:09:11;;;;;;;17.02;3.47;;;;;;;15.71;100.00;101242.09;4881796;29;20059;-78
2023/07/13 04:11:38;;;;;;;9.55;3.28;;;;;;;15.75;100.00;101249.16;4873033;29;20048;-78
2023/07/13 04:14:06;;;;;;;12.88;2.88;;;;;;;15.81;100.00;101247.34;4833027;29;20052;-77
2023/07/13 04:16:36;;;;;;;11.30;3.00;;;;;;;15.83;100.00;101243.75;4879282;29;20063;-78
2023/07/13 04:19:04;;;;;;;9.32;3.22;;;;;;;15.94;100.00;101249.81;4884615;29;20439;-77
2023/07/13 04:21:32;;;;;;;8.80;3.22;;;;;;;16.22;100.00;101243.22;4881975;29;20072;-78
2023/07/13 04:24:01;;;;;;;7.03;3.15;;;;;;;16.71;100.00;101242.50;4862826;29;20053;-78
2023/07/13 04:26:29;;;;;;;11.07;3.10;;;;;;;17.22;100.00;101245.25;4886544;29;20507;-77
2023/07/13 04:28:56;;;;;;;11.15;3.25;;;;;;;17.54;100.00;101251.72;4846005;29;20051;-77
2023/07/13 04:31:24;;;;;;;9.55;3.25;;;;;;;17.49;100.00;101250.97;4899914;29;20078;-79
2023/07/13 04:33:53;;;;;;;8.45;3.33;;;;;;;17.39;100.00;101252.94;4873340;29;20060;-78
2023/07/13 04:36:21;;;;;;;10.20;3.53;;;;;;;17.27;100.00;101255.78;4866015;29;20543;-78
2023/07/13 04:38:49;;;;;;;11.70;3.10;;;;;;;17.13;100.00;101256.91;4868370;29;20052;-77
2023/07/13 04:41:16;;;;;;;10.13;3.88;;;;;;;17.04;100.00;101265.06;4861832;29;20072;-78
2023/07/13 04:43:44;;;;;;;17.25;3.47;;;;;;;16.90;100.00;101253.75;4840908;29;20049;-78
2023/07/13 04:46:15;;;;;;;12.18;3.25;;;;;;;16.79;100.00;101267.22;4883929;29;20056;-78
2023/07/13 04:48:43;;;;;;;12.73;4.53;;;;;;;16.91;100.00;101261.72;4880179;29;20064;-77
2023/07/13 04:51:11;;;;;;;10.80;3.78;;;;;;;17.31;100.00;101270.81;4865572;29;20056;-78
2023/07/13 04:53:38;;;;;;;10.13;3.55;;;;;;;17.81;100.00;101271.66;4883987;29;20049;-79
2023/07/13 04:56:06;;;;;;;11.07;3.40;;;;;;;18.36;100.00;101268.75;4879677;29;20401;-80
2023/07/13 04:58:34;;;;;;;9.57;3.38;;;;;;;18.88;100.00;101263.09;4869303;29;20052;-77
2023/07/13 05:01:04;;;;;;;11.75;3.03;;;;;;;19.43;100.00;101265.25;4880419;29;20130;-78
2023/07/13 05:03:34;;;;;;;12.85;3.53;;;;;;;19.99;100.00;101269.97;4896421;29;20060;-78
2023/07/13 05:06:09;;;;;;;13.95;3.30;;;;;;;20.40;100.00;101274.06;4880161;29;20048;-79
2023/07/13 05:08:37;;;;;;;9.85;3.75;;;;;;;20.89;100.00;101276.09;4869712;29;20053;-78
2023/07/13 05:11:05;;;;;;;11.07;3.17;;;;;;;21.31;100.00;101270.25;4869858;29;20053;-78
2023/07/13 05:13:33;;;;;;;13.63;3.20;;;;;;;21.49;100.00;101272.28;4855806;29;20052;-78
2023/07/13 05:16:03;;;;;;;10.60;2.88;;;;;;;21.74;100.00;101277.66;4861297;29;20063;-79
2023/07/13 05:18:31;;;;;;;12.80;3.28;;;;;;;21.92;100.00;101276.09;4888528;29;20064;-80
2023/07/13 05:21:02;;;;;;;9.38;3.08;;;;;;;22.10;100.00;101274.53;4892399;29;20059;-79
2023/07/13 05:23:31;;;;;;;10.88;3.47;;;;;;;22.27;100.00;101291.81;4879394;29;20500;-79
2023/07/13 05:26:00;;;;;;;14.75;3.63;;;;;;;22.42;100.00;101288.56;4862405;29;20049;-78
2023/07/13 05:28:31;;;;;;;6.82;2.53;;;;;;;22.44;100.00;101291.16;4892947;29;20527;-78
2023/07/13 05:30:59;;;;;;;7.25;2.63;;;;;;;22.74;100.00;101291.75;4842540;29;20056;-77
2023/07/13 05:33:26;;;;;;;10.80;2.80;;;;;;;23.09;100.00;101289.47;4901922;29;20053;-77
2023/07/13 05:35:54;;;;;;;8.88;3.17;;;;;;;23.36;100.00;101287.38;4893402;29;20067;-79
2023/07/13 05:38:21;;;;;;;12.98;3.05;;;;;;;23.55;100.00;101292.84;4890240;29;20061;-78
2023/07/13 05:40:51;;;;;;;8.93;2.40;;;;;;;23.39;100.00;101291.78;4874691;29;20520;-79
2023/07/13 05:43:18;;;;;;;9.03;2.77;;;;;;;23.42;100.00;101297.00;4901209;29;20063;-79
2023/07/13 05:45:46;;;;;;;9.50;2.47;;;;;;;23.63;100.00;101300.56;4855574;29;20359;-79
2023/07/13 05:48:13;;;;;;;9.13;2.75;;;;;;;23.78;100.00;101290.94;4893356;29;20068;-78
2023/07/13 05:50:41;;;;;;;10.07;2.67;;;;;;;23.74;100.00;101301.88;4903416;29;20064;-78
2023/07/13 05:53:08;;;;;;;10.25;2.67;;;;;;;23.65;100.00;101309.47;4857909;29;20052;-77
2023/07/13 05:55:35;;;;;;;7.97;2.45;;;;;;;23.53;100.00;101298.31;4848472;29;20485;-77
2023/07/13 05:58:03;;;;;;;7.97;2.50;;;;;;;23.68;100.00;101301.25;4891202;29;20063;-78
2023/07/13 06:00:30;;;;;;;8.35;2.55;;;;;;;23.83;100.00;101302.41;4863873;29;20056;-78
2023/07/13 06:02:58;;;;;;;8.20;2.38;;;;;;;24.04;100.00;101311.31;4826705;29;20071;-78
2023/07/13 06:05:28;;;;;;;6.20;2.40;;;;;;;24.07;100.00;101313.88;4857372;29;20052;-78
2023/07/13 06:07:56;;;;;;;7.10;2.28;;;;;;;23.90;100.00;101309.28;4895072;29;20057;-78
2023/07/13 06:10:23;;;;;;;10.48;2.70;;;;;;;23.95;100.00;101309.94;4847512;29;20056;-78
2023/07/13 06:12:51;;;;;;;5.07;2.47;;;;;;;23.90;100.00;101314.66;4822722;29;20060;-79
2023/07/13 06:15:18;;;;;;;8.70;2.17;;;;;;;23.74;100.00;101309.03;4905710;29;20060;-78
2023/07/13 06:17:46;;;;;;;6.78;2.20;;;;;;;23.49;100.00;101314.63;4848186;29;20052;-78
2023/07/13 06:20:14;;;;;;;6.90;2.63;;;;;;;23.18;100.00;101325.84;4882534;29;20044;-78
2023/07/13 06:22:42;;;;;;;5.32;1.92;;;;;;;23.01;100.00;101319.31;4897357;29;20056;-79
2023/07/13 06:25:10;;;;;;;7.15;2.38;;;;;;;22.74;100.00;101326.66;4881166;29;20059;-79
2023/07/13 06:27:37;;;;;;;9.45;2.35;;;;;;;22.46;100.00;101329.59;4862905;29;20052;-78
2023/07/13 06:30:05;;;;;;;8.18;2.50;;;;;;;22.26;100.00;101333.91;4881879;29;20052;-79
2023/07/13 06:32:34;;;;;;;6.80;1.83;;;;;;;21.96;100.00;101327.84;4839628;29;20397;-80
2023/07/13 06:35:01;;;;;;;7.18;2.20;;;;;;;21.82;100.00;101330.16;4872880;29;20436;-79
2023/07/13 06:37:29;;;;;;;7.47;2.45;;;;;;;21.85;100.00;101332.72;4863430;29;20052;-79
2023/07/13 06:39:56;;;;;;;8.48;2.50;;;;;;;21.97;100.00;101334.97;4858246;29;20076;-79
2023/07/13 06:42:25;;;;;;;9.75;2.22;;;;;;;22.02;100.00;101338.34;4869943;29;20055;-79
2023/07/13 06:44:52;;;;;;;12.25;2.72;;;;;;;22.04;100.00;101336.50;4887521;29;20067;-79
2023/07/13 06:47:20;;;;;;;3.90;1.80;;;;;;;21.94;100.00;101337.75;4874327;29;20044;-79
2023/07/13 06:49:47;;;;;;;4.45;2.17;;;;;;;21.83;100.00;101340.81;4843015;29;20060;-79
2023/07/13 06:52:15;;;;;;;5.90;2.10;;;;;;;21.68;100.00;101347.63;4891740;29;20051;-79
2023/07/13 06:54:43;;;;;;;5.47;1.73;;;;;;;21.43;100.00;101348.41;4876112;29;20061;-79
2023/07/13 06:57:11;;;;;;;8.65;2.00;;;;;;;21.31;100.00;101356.88;4882510;29;20049;-78
2023/07/13 06:59:38;;;;;;;8.25;1.77;;;;;;;21.40;100.00;101351.22;4879372;29;20443;-79
2023/07/13 07:02:06;;;;;;;6.32;2.20;;;;;;;21.47;100.00;101353.72;4895135;29;20045;-78
2023/07/13 07:04:33;;;;;;;5.15;1.70;;;;;;;21.52;100.00;101349.94;4853768;29;20048;-80
2023/07/13 07:07:01;;;;;;;6.05;2.45;;;;;;;21.50;100.00;101357.16;4869930;29;20047;-79
2023/07/13 07:09:29;;;;;;;4.32;1.85;;;;;;;21.40;100.00;101355.72;4882856;29;20053;-79
2023/07/13 07:11:57;;;;;;;5.60;1.83;;;;;;;21.39;100.00;101352.13;4876229;29;20637;-79
2023/07/13 07:14:34;;;;;;;6.43;1.80;;;;;;;21.26;100.00;101366.00;4863773;29;20416;-78
2023/07/13 07:17:01;;;;;;;4.43;1.30;;;;;;;21.10;100.00;101366.50;4875717;29;20112;-78
2023/07/13 07:19:30;;;;;;;4.35;2.03;;;;;;;21.12;100.00;101367.34;4829998;29;20064;-79
2023/07/13 07:21:57;;;;;;;6.88;2.05;;;;;;;21.32;100.00;101363.13;4875754;29;20052;-78
2023/07/13 07:24:25;;;;;;;4.90;1.35;;;;;;;21.50;100.00;101367.03;4878538;29;20048;-78
2023/07/13 07:26:52;;;;;;;7.70;1.65;;;;;;;21.51;100.00;101361.63;4876350;29;20060;-79
2023/07/13 07:29:26;;;;;;;6.95;2.45;;;;;;;21.37;100.00;101377.25;4880654;29;20061;-79
2023/07/13 07:31:56;;;;;;;4.45;1.42;;;;;;;21.19;100.00;101371.56;4888994;29;20083;-79
2023/07/13 07:34:26;;;;;;;7.35;1.63;;;;;;;20.99;100.00;101371.34;4858788;29;20060;-78
2023/07/13 07:36:54;;;;;;;6.32;1.42;;;;;;;20.86;100.00;101376.19;4850337;29;1143823;-79
2023/07/13 07:39:24;;;;;;;4.97;1.27;;;;;;;20.91;100.00;101368.03;4878913;29;20499;-79
2023/07/13 07:41:52;;;;;;;5.88;1.45;;;;;;;21.00;100.00;101368.63;4878205;29;20056;-78
2023/07/13 07:44:24;;;;;;;5.25;1.40;;;;;;;21.13;100.00;101366.41;4886240;29;20419;-79
2023/07/13 07:46:51;;;;;;;3.40;1.80;;;;;;;21.25;100.00;101359.78;4877169;29;20060;-78
2023/07/13 07:49:20;;;;;;;4.50;1.42;;;;;;;21.31;100.00;101364.94;4863326;29;20075;-78
2023/07/13 07:51:48;;;;;;;8.00;1.45;;;;;;;21.25;100.00;101362.47;4827344;29;20108;-78
2023/07/13 07:54:15;;;;;;;6.00;1.60;;;;;;;21.27;100.00;101359.72;4878910;29;20052;-79
2023/07/13 07:57:05;;;;;;;5.68;1.50;;;;;;;21.34;100.00;101366.63;4889784;29;20061;-79
2023/07/13 07:59:37;;;;;;;3.83;1.92;;;;;;;21.28;100.00;101362.34;4865569;29;21568;-81
2023/07/13 08:02:10;;;;;;;4.20;1.50;;;;;;;21.09;100.00;101362.06;4884160;29;20063;-81
2023/07/13 08:04:58;;;;;;;;;;;;;;;20.89;100.00;101365.41;4895814;29;20464;-80
2023/07/13 08:07:30;;;;;;;5.20;1.42;;;;;;;20.92;100.00;101362.59;4841431;29;19931;-80
2023/07/13 08:09:58;;;;;;;2.10;1.10;;;;;;;20.97;100.00;101363.34;4894107;29;20056;-81
2023/07/13 08:12:26;;;;;;;2.72;1.10;;;;;;;21.08;100.00;101365.69;4896527;29;20052;-80
2023/07/13 08:14:57;;;;;;;3.28;1.65;;;;;;;21.23;100.00;101367.88;4853024;29;20507;-81
2023/07/13 08:17:25;;;;;;;4.22;1.65;;;;;;;21.40;100.00;101367.31;4863640;29;20068;-80
2023/07/13 08:19:53;;;;;;;8.20;1.40;;;;;;;21.51;100.00;101355.34;4889534;29;20055;-80
2023/07/13 08:22:21;;;;;;;4.68;1.27;;;;;;;21.56;100.00;101361.44;4843218;29;20053;-79
2023/07/13 08:24:55;;;;;;;4.53;1.35;;;;;;;21.56;100.00;101382.91;4894261;29;20059;-80
2023/07/13 08:27:25;;;;;;;4.38;1.50;;;;;;;21.58;100.00;101376.53;4852898;29;20052;-80
2023/07/13 08:29:53;;;;;;;4.43;1.60;;;;;;;21.50;100.00;101385.78;4866124;29;20412;-79
2023/07/13 08:32:22;;;;;;;4.72;1.48;;;;;;;21.38;100.00;101385.25;4844986;29;20053;-82
2023/07/13 08:34:51;;;;;;;5.20;1.60;;;;;;;21.14;100.00;101394.09;4863987;29;20471;-79
2023/07/13 08:37:19;;;;;;;4.90;1.95;;;;;;;21.02;100.00;101387.31;4859583;29;20060;-80
2023/07/13 08:39:47;;;;;;;3.78;1.30;;;;;;;20.98;100.00;101394.59;4875938;29;20456;-80
2023/07/13 08:42:29;;;;;;;5.65;1.75;;;;;;;20.74;100.00;101390.00;4877697;29;20048;-80
2023/07/13 08:45:38;;;;;;;4.78;1.45;;;;;;;20.54;100.00;101396.78;4892032;29;20184;-80
2023/07/13 08:48:13;;;;;;;5.93;1.77;;;;;;;20.56;100.00;101378.84;4891918;29;20045;-79
2023/07/13 08:50:57;;;;;;;3.78;1.38;;;;;;;20.67;100.00;101385.75;4920196;29;20048;-78
2023/07/13 08:53:37;;;;;;;3.10;1.20;;;;;;;20.80;100.00;101379.09;4866734;29;20058;-79
2023/07/13 08:56:16;;;;;;;2.10;1.10;;;;;;;20.87;100.00;101388.69;4889278;29;20052;-79
2023/07/13 08:58:45;;;;;;;4.40;1.40;;;;;;;20.89;100.00;101392.19;4891556;29;20389;-78
2023/07/13 09:01:32;;;;;;;3.95;1.60;;;;;;;20.79;100.00;101398.75;4875033;29;20068;-78
2023/07/13 09:04:15;;;;;;;2.10;1.27;;;;;;;20.67;100.00;101391.09;4872705;29;20056;-79
2023/07/13 09:06:46;;;;;;;3.58;1.80;;;;;;;20.60;100.00;101391.28;4899778;29;20542;-79
2023/07/13 09:09:33;;;;;;;1.83;1.00;;;;;;;20.43;100.00;101398.88;4851478;29;20040;-78
2023/07/13 09:12:16;;;;;;;3.95;1.38;;;;;;;20.40;100.00;101405.22;4890196;29;20057;-80
2023/07/13 09:14:50;;;;;;;2.85;1.42;;;;;;;20.33;100.00;101406.31;4889977;29;20064;-79
2023/07/13 09:17:46;;;;;;;3.67;1.50;;;;;;;20.29;100.00;101414.47;4878464;29;20049;-80
2023/07/13 09:20:25;;;;;;;3.20;1.40;;;;;;;20.35;100.00;101406.25;4885577;29;20041;-80
2023/07/13 09:22:52;;;;;;;3.85;1.40;;;;;;;20.34;100.00;101404.50;4893200;29;20056;-79
2023/07/13 09:25:30;;;;;;;5.40;1.25;;;;;;;20.34;100.00;101404.50;4860889;29;20058;-81
2023/07/13 09:28:24;;;;;;;4.65;1.38;;;;;;;20.34;100.00;101409.84;4892149;29;20435;-80
2023/07/13 09:31:06;;;;;;;7.70;1.77;;;;;;;20.36;100.00;101408.91;4889309;29;20056;-80
2023/07/13 09:33:34;;;;;;;3.10;1.45;;;;;;;20.42;100.00;101407.84;4840348;29;20083;-80
2023/07/13 09:36:17;;;;;;;6.50;1.50;;;;;;;20.45;100.00;101405.97;4872344;29;20061;-80
2023/07/13 09:38:47;;;;;;;3.25;1.27;;;;;;;20.53;100.00;101408.41;4854124;29;20056;-79
2023/07/13 09:41:53;;;;;;;3.95;1.40;;;;;;;20.59;100.00;101405.53;4879163;29;20061;-81
2023/07/13 09:44:34;;;;;;;3.03;1.40;;;;;;;20.72;100.00;101399.84;4890154;29;20048;-80
2023/07/13 09:47:03;;;;;;;3.30;1.60;;;;;;;20.98;100.00;101402.63;4871802;29;20435;-79
2023/07/13 09:49:35;;;;;;;6.13;2.15;;;;;;;21.10;100.00;101414.75;4856700;29;20048;-81
2023/07/13 09:52:06;;;;;;;2.80;1.48;;;;;;;21.07;100.00;101422.88;4899702;29;20044;-80
2023/07/13 09:54:35;;;;;;;;;;;;;;;20.97;100.00;101419.59;4843804;29;20074;-79
2023/07/13 09:57:12;;;;;;;3.42;1.50;;;;;;;20.69;100.00;101427.59;4876928;29;19931;-81
2023/07/13 09:59:50;;;;;;;3.97;1.98;;;;;;;20.48;100.00;101429.09;4888212;29;20048;-79
2023/07/13 10:02:34;;;;;;;4.00;1.73;;;;;;;20.30;100.00;101429.59;4878017;29;20048;-81
2023/07/13 10:05:12;;;;;;;6.28;1.95;;;;;;;20.18;100.00;101425.47;4891259;29;20059;-81
2023/07/13 10:07:44;;;;;;;7.03;2.13;;;;;;;20.08;100.00;101419.50;4896700;29;20056;-81
2023/07/13 10:10:17;;;;;;;6.00;2.55;;;;;;;19.99;100.00;101423.28;4845261;29;20048;-80
2023/07/13 10:12:46;;;;;;;4.10;2.00;;;;;;;19.96;100.00;101434.09;4889862;29;20048;-80
2023/07/13 10:15:18;;;;;;;4.05;1.88;;;;;;;19.84;100.00;101432.59;4892870;29;20053;-82
2023/07/13 10:17:54;;;;;;;4.82;1.60;;;;;;;19.64;100.00;101442.88;4896812;29;20049;-81
2023/07/13 10:20:24;;;;;;;4.15;1.48;;;;;;;19.42;100.00;101435.41;4882266;29;20048;-81
2023/07/13 10:23:00;;;;;;;7.75;2.42;;;;;;;19.22;100.00;101440.34;4857374;29;20045;-80
2023/07/13 10:25:32;;;;;;;5.13;2.10;;;;;;;19.04;100.00;101439.00;4868078;29;20056;-81
2023/07/13 10:28:20;;;;;;;3.88;1.58;;;;;;;18.93;100.00;101436.56;4892435;29;20059;-81
2023/07/13 10:30:49;;;;;;;4.18;1.95;;;;;;;18.93;100.00;101446.38;4890519;29;20072;-81
2023/07/13 10:33:17;;;;;;;2.92;1.75;;;;;;;19.01;100.00;101450.59;4891779;29;20053;-81
2023/07/13 10:35:46;;;;;;;7.75;2.10;;;;;;;19.15;100.00;101449.41;4863376;29;20057;-81
2023/07/13 10:38:20;;;;;;;3.55;1.83;;;;;;;19.37;100.00;101441.78;4843413;29;20074;-81
2023/07/13 10:40:53;;;;;;;5.45;1.75;;;;;;;19.47;100.00;101449.53;4844571;29;21253;-81
2023/07/13 10:43:26;;;;;;;4.32;1.77;;;;;;;19.51;100.00;101439.66;4880661;29;20056;-81
2023/07/13 10:45:55;;;;;;;4.38;2.10;;;;;;;19.50;100.00;101437.03;4891143;29;20060;-82
2023/07/13 10:48:26;;;;;;;2.35;1.30;;;;;;;19.41;100.00;101439.00;4875816;29;20504;-81
2023/07/13 10:50:55;;;;;;;3.67;1.35;;;;;;;19.34;100.00;101442.75;4859282;29;20056;-81
2023/07/13 10:53:30;;;;;;;3.38;1.13;;;;;;;19.34;100.00;101444.50;4902282;29;20059;-81
2023/07/13 10:56:02;;;;;;;2.33;1.27;;;;;;;19.41;100.00;101444.34;4893601;29;20047;-80
2023/07/13 10:58:37;;;;;;;8.32;1.65;;;;;;;19.56;100.00;101443.06;4858756;29;20060;-79
2023/07/13 11:01:18;;;;;;;2.33;1.40;;;;;;;19.71;100.00;101452.50;4901040;29;20064;-79
2023/07/13 11:04:03;;;;;;;4.78;1.20;;;;;;;19.80;100.00;101446.09;4879665;29;20052;-79
2023/07/13 11:06:38;;;;;;;3.17;0.98;;;;;;;19.81;100.00;101456.75;4876020;29;20049;-81
2023/07/13 11:09:19;;;;;;;2.05;1.00;;;;;;;19.86;100.00;101457.50;4896502;29;20049;-80
2023/07/13 11:11:47;;;;;;;2.20;0.98;;;;;;;20.01;100.00;101450.88;4883193;29;20542;-80
2023/07/13 11:14:30;;;;;;;1.30;0.93;;;;;;;20.16;100.00;101468.31;4842351;29;20423;-80
2023/07/13 11:16:59;;;;;;;1.33;1.10;;;;;;;20.36;100.00;101449.06;4894700;29;20143;-80
2023/07/13 11:19:37;;;;;;;1.67;0.93;;;;;;;20.54;100.00;101458.34;4876598;29;20071;-80
2023/07/13 11:22:05;;;;;;;2.60;1.13;;;;;;;20.56;100.00;101452.94;4879417;29;20111;-80
2023/07/13 11:24:51;;;;;;;2.97;1.10;;;;;;;20.45;100.00;101451.47;4895486;29;20495;-80
2023/07/13 11:27:37;;;;;;;2.25;0.80;;;;;;;20.39;100.00;101464.13;4890044;29;20048;-82
2023/07/13 11:30:27;;;;;;;2.00;0.85;;;;;;;20.50;100.00;101466.53;4846172;29;20512;-80
2023/07/13 11:33:07;;;;;;;3.22;1.17;;;;;;;20.76;100.00;101463.13;4893433;29;20056;-83